Impacts TAF Board INFO
FOR SITUATIONAL AWARENESS. NOT TO BE USED FOR FLIGHT PLANNING PURPOSES.
IDs:

KEWR - Newark Intl, NJ, US

Issued at 0225 UTC 22 Jun 2018
Updated at 0317 UTC 22 Jun 2018
Potential Impact None Slight Moderate High
Time<<22/16Z 22/17Z 22/18Z 22/19Z 22/20Z 22/21Z 22/22Z 22/23Z 23/00Z 23/01Z 23/02Z 23/03Z 23/04Z>>
Type PRVL PRVL PRVL PRVL PRVL PRVL PRVL PRVL PRVL PRVL PRVL PRVL PRVL
VIS >6 >6 >6 >6 >6 >6 >6 >6 >6 >6 >6 >6 >6
CIG 150 150 120 120 120 120 120 120 120 120 120 50 50
Cover BKN BKN OVC OVC OVC OVC OVC OVC OVC OVC OVC OVC OVC
FltCat VFR VFR VFR VFR VFR VFR VFR VFR VFR VFR VFR VFR VFR
WX -- -- -- -- -- -- -- -- -- -- -- VCSH VCSH
WDir 80 80 110 110 110 110 110 110 110 110 110 70 70
WSpd 10 10 12 12 12 12 12 12 12 12 12 8 8
WGst -- -- -- -- -- -- -- -- -- -- -- -- --

Raw TAF
KEWR 220225Z 2202/2306 03004KT P6SM FEW250
  FM220900 04008KT P6SM FEW030 BKN250
  TEMPO 2209/2212 BKN010
  FM221400 08010KT P6SM BKN150
  FM221800 11012KT P6SM OVC120
  FM230300 07008KT P6SM VCSH SCT025 OVC050


METAR Board
Radar Display
Forecast Discussion

FOR SITUATIONAL AWARENESS. NOT TO BE USED FOR FLIGHT PLANNING PURPOSES.